Calypso, North Carolina
Current Conditions -  °F | °C
As of 1:35 AM on Wednesday 28 Jan 2015 (Local Time) from KDPL Reporting Station
Clear Clear  
Wind Chill: -3°   Ceiling: Unl
Heat Index:   Visibility: 10mi
Dew Point: -6°   Wind: 5mph
Humidity: 64%   Direction: 330°NNW
Pressure: 30.01"   Gusts: NA
Location:  35.15°N, 78.11°W
Report Text: KDPL 280635Z AUTO 33004KT 10SM CLR 00/M06 A3001 RMK AO2 T10021063
Loading
Personal Weather Stations






























Interactive Weather Map New forecast layout! Learn more

10-Day Weather Forecast

Advertisements
Track Severe Weather on mobile